EW0868 Weather Reports


Display with metric or nautical units.
time (UTC)temp
F
wind
direction
speed
MPH
gust
MPH
rain 1hr
in
rain 24hr
in
rain mn
in
humidity
%
barometer
mb
20210411120127 31 90 0.0 0.0 0.00 0.05 0.00 94 1028.5
20210411114537 32 90 0.0 0.0 0.00 0.05 0.00 94 1028.4
20210411113036 32 90 0.0 0.0 0.00 0.05 0.00 94 1028.5
20210411111532 32 90 0.0 1.0 0.00 0.05 0.00 93 1028.5
20210411110056 32 90 0.0 0.0 0.00 0.07 0.00 93 1028.4
20210411104533 33 90 0.0 1.0 0.00 0.07 0.00 93 1028.2
20210411103106 33 90 0.0 2.0 0.00 0.07 0.00 93 1028.3
20210411101545 33 90 0.0 1.0 0.00 0.07 0.00 93 1028.2
20210411100045 33 90 0.0 0.0 0.00 0.07 0.00 92 1028.1
20210411094525 34 90 0.0 0.0 0.00 0.07 0.00 92 1028.0
20210411093059 34 90 0.0 1.0 0.00 0.07 0.00 92 1027.9
20210411091543 34 90 0.0 1.0 0.00 0.07 0.00 92 1027.9
20210411090135 35 90 1.0 2.0 0.00 0.12 0.00 91 1028.0
20210411084550 35 90 0.0 0.0 0.00 0.12 0.00 91 1028.0
20210411083044 35 90 0.0 0.0 0.00 0.12 0.00 91 1028.2
20210411081534 35 90 0.0 1.0 0.00 0.12 0.00 90 1028.1
20210411080051 35 90 0.0 0.0 0.00 0.12 0.00 90 1028.0
20210411074534 35 90 0.0 0.0 0.00 0.12 0.00 89 1028.0
20210411073036 36 90 0.0 0.0 0.00 0.12 0.00 89 1028.0
20210411071544 36 90 0.0 1.0 0.00 0.12 0.00 89 1028.0
20210411070119 35 90 0.0 1.0 0.00 0.13 0.12 89 1028.0
20210411064534 36 90 0.0 0.0 0.00 0.13 0.12 88 1027.9
20210411061542 37 90 0.0 0.0 0.00 0.13 0.12 85 1027.9
20210411054604 39 90 0.0 0.0 0.00 0.15 0.12 81 1027.9
20210411051547 40 329 0.0 0.0 0.00 0.15 0.12 79 1027.7
20210411044620 40 327 1.0 3.0 0.00 0.16 0.12 78 1027.4
20210411041600 41 285 0.0 2.0 0.00 0.16 0.12 76 1027.4
20210411034548 42 284 2.0 3.0 0.00 0.17 0.12 74 1027.3
20210411031630 43 271 2.0 3.0 0.00 0.17 0.12 70 1027.2
20210411024546 44 293 4.0 6.0 0.00 0.17 0.12 68 1026.7
20210411023046 45 261 4.0 6.0 0.00 0.17 0.12 69 1026.5
20210411021533 45 314 2.0 6.0 0.00 0.17 0.12 67 1026.6
20210411014536 46 344 3.0 6.0 0.00 0.17 0.12 63 1026.5
20210411013132 46 355 5.0 10.0 0.00 0.17 0.12 61 1026.5
20210411011541 47 340 6.0 10.0 0.00 0.17 0.12 60 1026.3
20210411004540 48 238 8.0 12.0 0.00 0.18 0.12 57 1026.4
20210411003103 48 286 4.0 10.0 0.00 0.18 0.12 59 1026.2
20210411001541 48 253 9.0 14.0 0.00 0.18 0.12 58 1026.1
20210411000045 48 261 11.0 17.0 0.00 0.18 0.12 59 1026.1
20210410234545 48 285 7.0 18.0 0.00 0.18 0.12 59 1026.1
20210410233053 48 98 8.0 15.0 0.00 0.18 0.12 62 1026.0
20210410231536 48 323 8.0 12.0 0.00 0.18 0.12 63 1025.8
20210410230050 47 293 6.0 8.0 0.01 0.18 0.12 63 1025.9
20210410224615 47 273 5.0 16.0 0.01 0.18 0.12 65 1026.0
20210410223101 44 244 5.0 9.0 0.01 0.18 0.12 75 1026.1
20210410221547 44 294 5.0 7.0 0.01 0.18 0.12 75 1026.1
20210410220039 48 346 5.0 14.0 0.00 0.17 0.11 62 1025.8
20210410214530 49 262 9.0 13.0 0.00 0.17 0.11 65 1025.7
20210410213037 47 309 4.0 11.0 0.00 0.17 0.11 65 1025.7
20210410211538 47 284 6.0 19.0 0.00 0.17 0.11 66 1025.6
20210410204600 48 246 10.0 18.0 0.00 0.17 0.11 61 1025.4
20210410201640 47 307 7.0 18.0 0.00 0.17 0.11 56 1025.3
20210410194621 47 235 7.0 12.0 0.00 0.17 0.11 58 1025.0
20210410193040 46 277 3.0 5.0 0.00 0.17 0.11 63 1025.0
20210410191542 46 248 8.0 11.0 0.00 0.17 0.11 61 1025.0
20210410190300 45 243 9.0 11.0 0.00 0.17 0.11 68 1025.0
20210410184544 44 350 4.0 12.0 0.00 0.17 0.11 76 1024.9
20210410183042 43 241 7.0 15.0 0.00 0.17 0.11 78 1024.9
20210410181550 43 244 6.0 11.0 0.01 0.17 0.11 83 1024.8
20210410180225 41 250 4.0 5.0 0.01 0.17 0.11 86 1024.8
20210410174545 43 219 9.0 14.0 0.01 0.17 0.11 81 1024.7
20210410173056 44 280 3.0 12.0 0.01 0.17 0.11 76 1024.5
20210410171556 43 250 5.0 8.0 0.00 0.16 0.10 80 1024.2
20210410170220 43 263 2.0 5.0 0.00 0.16 0.10 82 1024.0
20210410164534 42 296 4.0 7.0 0.00 0.16 0.10 85 1024.0
20210410163124 41 236 4.0 5.0 0.00 0.16 0.10 87 1023.8
20210410161546 40 345 2.0 5.0 0.00 0.16 0.10 88 1023.7
20210410160141 39 288 3.0 4.0 0.00 0.16 0.10 90 1023.4
20210410154529 40 291 3.0 9.0 0.00 0.16 0.10 89 1023.3
20210410153040 40 263 3.0 7.0 0.00 0.16 0.10 89 1023.2
20210410151640 39 286 2.0 4.0 0.00 0.16 0.10 91 1022.8
20210410150347 39 253 1.0 4.0 0.00 0.16 0.10 91 1022.7
20210410144541 38 284 1.0 3.0 0.00 0.16 0.10 92 1022.3
20210410143045 38 284 2.0 2.0 0.00 0.16 0.10 92 1022.0
20210410141541 38 271 2.0 5.0 0.00 0.16 0.10 92 1021.8
20210410140328 38 240 4.0 5.0 0.02 0.16 0.10 92 1021.4
20210410134601 38 243 4.0 6.0 0.03 0.16 0.10 92 1021.1
20210410133043 37 284 3.0 7.0 0.03 0.16 0.10 93 1021.0
20210410131534 37 346 1.0 6.0 0.03 0.16 0.10 93 1020.9
20210410130146 38 5 6.0 11.0 0.01 0.14 0.08 92 1021.2
20210410124541 39 254 3.0 4.0 0.00 0.13 0.07 93 1020.3
20210410123712 39 279 2.0 3.0 0.00 0.13 0.07 93 1020.3
20210410121542 39 242 2.0 4.0 0.00 0.13 0.07 92 1020.0